Time;durP1;ratioP1;P1;durP2;ratioP2;P2;SDS_P1;SDS_P2;PMS_P1;PMS_P2;Temp;Humidity;BMP_temperature;BMP_pressure;BME280_temperature;BME280_humidity;BME280_pressure;Samples;Min_cycle;Max_cycle;Signal;HPM_P1;HPM_P2
2022/11/08 15:08:50;;;;;;;19.07;8.37;;;20.80;83.30;;;;;;5090543;27;20552;-37
2022/11/08 15:11:28;;;;;;;18.43;8.70;;;21.50;86.30;;;;;;5090642;28;20195;-37
2022/11/08 15:13:59;;;;;;;17.27;7.93;;;22.00;84.10;;;;;;5089713;28;20192;-37
2022/11/08 15:16:28;;;;;;;16.47;7.63;;;22.40;80.80;;;;;;5089223;28;20674;-38
2022/11/08 15:18:56;;;;;;;14.90;7.90;;;22.60;77.60;;;;;;5089615;28;20299;-38
2022/11/08 15:21:29;;;;;;;16.53;7.17;;;22.80;75.30;;;;;;5088133;28;20208;-37
2022/11/08 15:24:14;;;;;;;15.73;7.90;;;23.00;73.50;;;;;;5089397;28;20661;-38
2022/11/08 15:27:04;;;;;;;13.90;8.23;;;23.20;72.00;;;;;;5088254;28;20576;-38
2022/11/08 15:29:48;;;;;;;13.33;7.63;;;23.30;70.70;;;;;;5089447;28;20264;-37
2022/11/08 15:32:18;;;;;;;15.70;6.53;;;23.30;69.80;;;;;;5089259;28;20280;-39
2022/11/08 15:34:47;;;;;;;12.73;6.97;;;23.40;69.30;;;;;;5088627;28;20203;-39
2022/11/08 15:37:20;;;;;;;13.20;7.37;;;23.40;68.70;;;;;;5086484;28;20204;-38
2022/11/08 15:39:51;;;;;;;12.67;6.63;;;23.40;68.30;;;;;;5079567;28;20212;-38
2022/11/08 15:42:20;;;;;;;16.77;7.87;;;23.40;68.00;;;;;;5088975;28;20204;-38
2022/11/08 15:45:04;;;;;;;11.90;7.20;;;23.50;67.80;;;;;;5088844;28;20199;-40
2022/11/08 15:47:37;;;;;;;10.87;6.23;;;23.50;67.10;;;;;;5087761;28;20227;-38
2022/11/08 15:50:14;;;;;;;11.60;6.30;;;23.50;66.70;;;;;;5088816;28;20683;-38
2022/11/08 15:52:43;;;;;;;11.30;6.57;;;23.50;66.20;;;;;;5084139;28;20244;-38
2022/11/08 15:55:17;;;;;;;12.03;7.03;;;23.60;65.90;;;;;;5077130;28;20723;-38
2022/11/08 15:57:47;;;;;;;10.87;6.63;;;23.50;65.50;;;;;;5072425;28;20689;-37
2022/11/08 16:00:25;;;;;;;10.93;6.93;;;23.60;65.40;;;;;;5068131;28;20206;-38
2022/11/08 16:02:54;;;;;;;11.07;6.47;;;23.60;65.00;;;;;;5070863;28;20185;-38
2022/11/08 16:05:24;;;;;;;12.50;6.97;;;23.60;64.60;;;;;;5088352;28;20205;-38
2022/11/08 16:07:54;;;;;;;10.47;6.93;;;23.60;64.20;;;;;;5087828;28;20695;-41
2022/11/08 16:10:29;;;;;;;10.43;6.40;;;23.60;64.00;;;;;;5088272;28;20718;-40
2022/11/08 16:12:59;;;;;;;11.77;6.50;;;23.60;63.50;;;;;;5088598;28;20208;-42
2022/11/08 16:15:31;;;;;;;14.50;7.57;;;23.70;63.30;;;;;;5088175;28;20219;-41
2022/11/08 16:17:59;;;;;;;12.03;6.57;;;23.70;62.90;;;;;;5086240;28;20670;-40
2022/11/08 16:20:29;;;;;;;9.10;6.30;;;23.70;62.60;;;;;;5074705;28;20198;-39
2022/11/08 16:22:59;;;;;;;12.40;6.37;;;23.70;62.30;;;;;;5074173;28;20202;-39
2022/11/08 16:25:33;;;;;;;9.57;6.50;;;23.70;62.10;;;;;;5074768;28;20298;-39
2022/11/08 16:28:05;;;;;;;10.23;6.23;;;23.70;61.70;;;;;;5074565;28;20254;-39
2022/11/08 16:30:36;;;;;;;9.17;6.07;;;23.70;61.50;;;;;;5074703;28;20201;-39
2022/11/08 16:33:19;;;;;;;7.30;5.47;;;23.70;61.20;;;;;;5073737;28;20884;-39
2022/11/08 16:35:48;;;;;;;10.07;5.50;;;23.70;60.80;;;;;;5072638;28;20191;-40
2022/11/08 16:38:22;;;;;;;8.03;5.40;;;23.70;60.80;;;;;;5074401;28;20240;-39
2022/11/08 16:40:52;;;;;;;10.73;6.47;;;23.80;60.60;;;;;;5072347;28;20223;-40
2022/11/08 16:43:20;;;;;;;10.57;6.07;;;23.80;60.40;;;;;;5066795;28;20218;-39
2022/11/08 16:45:48;;;;;;;10.23;5.73;;;23.80;60.20;;;;;;5062589;28;20207;-39
2022/11/08 16:48:35;;;;;;;8.33;5.73;;;23.80;60.00;;;;;;5074083;28;20234;-39
2022/11/08 16:51:06;;;;;;;10.60;5.97;;;23.70;59.80;;;;;;5073636;28;20202;-39
2022/11/08 16:53:35;;;;;;;9.27;5.57;;;23.80;59.70;;;;;;5060833;28;20210;-38
2022/11/08 16:56:05;;;;;;;10.50;5.73;;;23.80;59.70;;;;;;5074011;28;20204;-38
2022/11/08 16:58:33;;;;;;;8.13;5.23;;;23.80;59.50;;;;;;5074086;28;20301;-38
2022/11/08 17:01:03;;;;;;;10.27;6.20;;;23.80;59.50;;;;;;5074248;28;20248;-38
2022/11/08 17:03:37;;;;;;;10.23;6.17;;;23.80;59.30;;;;;;5073898;28;20205;-39
2022/11/08 17:06:05;;;;;;;10.33;6.40;;;23.80;59.10;;;;;;5072830;28;20211;-38
2022/11/08 17:08:34;;;;;;;10.20;5.70;;;23.80;59.00;;;;;;5073558;28;20234;-40
2022/11/08 17:11:02;;;;;;;8.00;5.40;;;23.80;59.00;;;;;;5073905;28;20222;-39
2022/11/08 17:13:32;;;;;;;11.33;5.37;;;23.80;58.90;;;;;;5073675;28;20192;-39
2022/11/08 17:16:08;;;;;;;8.63;5.67;;;23.80;58.80;;;;;;5073266;28;20284;-39
2022/11/08 17:18:37;;;;;;;9.80;5.33;;;23.80;58.70;;;;;;5073497;28;20205;-43
2022/11/08 17:21:05;;;;;;;7.93;5.10;;;23.80;58.70;;;;;;5073212;28;20199;-39
2022/11/08 17:23:54;;;;;;;10.37;5.30;;;23.80;58.60;;;;;;5057437;28;20191;-38
2022/11/08 17:26:22;;;;;;;8.43;5.00;;;23.80;58.50;;;;;;5073337;28;20209;-38
2022/11/08 17:28:54;;;;;;;7.97;4.97;;;23.80;58.40;;;;;;5073228;28;20238;-38
2022/11/08 17:31:23;;;;;;;6.93;4.87;;;23.90;58.30;;;;;;5072219;28;20205;-38
2022/11/08 17:33:51;;;;;;;9.27;5.57;;;23.90;58.30;;;;;;5071615;28;20257;-38
2022/11/08 17:36:19;;;;;;;10.30;4.93;;;23.90;58.20;;;;;;5073225;28;20199;-39
2022/11/08 17:38:48;;;;;;;9.17;5.63;;;23.90;58.10;;;;;;5071123;28;20201;-38
2022/11/08 17:41:16;;;;;;;8.33;5.37;;;23.80;58.10;;;;;;5068744;28;20205;-40
2022/11/08 17:43:44;;;;;;;7.93;5.40;;;23.80;58.10;;;;;;5073185;28;20203;-39
2022/11/08 17:46:14;;;;;;;6.50;5.20;;;23.80;58.00;;;;;;5072239;28;20257;-38
2022/11/08 17:48:43;;;;;;;9.57;5.23;;;23.90;58.00;;;;;;5072211;28;20229;-39
2022/11/08 17:51:14;;;;;;;9.30;5.50;;;23.80;57.90;;;;;;5072907;28;20205;-38
2022/11/08 17:53:42;;;;;;;7.87;5.50;;;23.80;57.80;;;;;;5072711;28;20248;-39
2022/11/08 17:56:11;;;;;;;9.03;4.90;;;23.90;57.80;;;;;;5072933;28;20190;-38
2022/11/08 17:58:40;;;;;;;8.00;5.33;;;23.80;57.70;;;;;;5072636;28;20210;-39
2022/11/08 18:01:09;;;;;;;8.00;5.40;;;23.90;57.70;;;;;;5072813;28;20251;-39
2022/11/08 18:03:39;;;;;;;8.07;5.33;;;23.90;57.60;;;;;;5071360;28;20687;-38
2022/11/08 18:06:10;;;;;;;7.40;4.93;;;23.80;57.60;;;;;;5072581;28;20207;-39
2022/11/08 18:08:39;;;;;;;9.83;5.90;;;23.90;57.60;;;;;;5057656;28;20230;-39
2022/11/08 18:11:07;;;;;;;7.30;5.20;;;23.80;57.40;;;;;;5062455;28;20206;-40
2022/11/08 18:13:35;;;;;;;7.27;5.27;;;23.80;57.40;;;;;;5072717;28;20206;-39
2022/11/08 18:16:08;;;;;;;9.87;5.40;;;23.80;57.40;;;;;;5071626;28;20199;-38
2022/11/08 18:18:37;;;;;;;8.83;4.90;;;23.80;57.40;;;;;;5071766;28;20561;-39
2022/11/08 18:21:08;;;;;;;7.03;5.20;;;23.90;57.30;;;;;;5072500;28;20241;-38
2022/11/08 18:23:39;;;;;;;9.90;5.30;;;23.90;57.20;;;;;;5072581;28;20195;-37
2022/11/08 18:26:07;;;;;;;6.80;5.13;;;23.90;57.20;;;;;;5072526;28;20209;-41
2022/11/08 18:28:37;;;;;;;8.30;6.03;;;23.90;57.10;;;;;;5072163;28;20218;-38
2022/11/08 18:31:06;;;;;;;10.37;6.23;;;23.90;57.20;;;;;;5072336;28;20680;-38
2022/11/08 18:33:35;;;;;;;9.90;5.93;;;23.90;57.10;;;;;;5071546;28;20298;-38
2022/11/08 18:36:07;;;;;;;7.00;5.13;;;23.80;57.00;;;;;;5072193;28;20202;-38
2022/11/08 18:38:37;;;;;;;9.30;6.00;;;23.80;57.10;;;;;;5071946;28;20294;-38
2022/11/08 18:41:06;;;;;;;9.43;5.77;;;23.80;57.00;;;;;;5071910;28;20193;-39
2022/11/08 18:43:35;;;;;;;7.77;5.30;;;23.90;57.00;;;;;;5072157;28;20679;-38
2022/11/08 18:46:03;;;;;;;10.70;5.17;;;23.80;57.00;;;;;;5071600;28;20204;-39
2022/11/08 18:48:34;;;;;;;7.40;5.23;;;23.90;57.10;;;;;;5071478;28;20285;-39
2022/11/08 18:51:03;;;;;;;12.77;6.60;;;23.90;57.10;;;;;;5061457;28;20286;-38
2022/11/08 18:53:33;;;;;;;8.13;5.00;;;23.90;57.10;;;;;;5050345;28;20623;-38
2022/11/08 18:56:01;;;;;;;8.73;5.00;;;23.90;57.10;;;;;;5065652;28;20202;-38
2022/11/08 18:58:29;;;;;;;10.43;6.13;;;23.90;57.10;;;;;;5070719;28;20202;-38
2022/11/08 19:00:58;;;;;;;7.20;4.53;;;23.90;57.10;;;;;;5072044;28;20194;-39
2022/11/08 19:03:27;;;;;;;6.20;5.10;;;23.90;57.70;;;;;;5071888;28;20190;-38
2022/11/08 19:05:56;;;;;;;6.97;5.13;;;23.90;57.20;;;;;;5071915;28;20202;-38
2022/11/08 19:08:27;;;;;;;7.77;6.13;;;23.90;57.10;;;;;;5070844;28;20231;-38
2022/11/08 19:10:59;;;;;;;7.20;5.00;;;23.90;57.10;;;;;;5071771;28;20202;-41
2022/11/08 19:13:29;;;;;;;6.77;4.97;;;23.90;57.20;;;;;;5071839;28;20607;-38
2022/11/08 19:15:58;;;;;;;5.77;4.87;;;23.90;57.20;;;;;;5071988;28;20197;-41
2022/11/08 19:18:27;;;;;;;9.83;5.57;;;23.90;57.20;;;;;;5071673;28;20204;-41
2022/11/08 19:20:56;;;;;;;7.07;5.40;;;23.90;57.10;;;;;;5071912;28;20199;-40
2022/11/08 19:23:25;;;;;;;8.60;5.60;;;23.90;57.10;;;;;;5070421;28;20211;-39
2022/11/08 19:25:57;;;;;;;7.97;4.97;;;23.90;57.10;;;;;;5068943;28;20201;-39
2022/11/08 19:28:26;;;;;;;7.37;5.23;;;23.90;57.10;;;;;;5058304;28;20211;-38
2022/11/08 19:31:00;;;;;;;7.47;5.00;;;23.90;57.00;;;;;;5053961;28;20273;-41
2022/11/08 19:33:30;;;;;;;6.23;4.70;;;23.90;56.90;;;;;;5060208;28;20196;-38
2022/11/08 19:36:01;;;;;;;6.90;5.43;;;23.90;56.90;;;;;;5058503;28;20207;-39
2022/11/08 19:38:31;;;;;;;8.73;5.43;;;23.90;56.80;;;;;;5051166;28;20195;-39
2022/11/08 19:41:02;;;;;;;7.93;5.40;;;23.90;56.70;;;;;;5060515;28;20198;-40
2022/11/08 19:43:31;;;;;;;7.93;5.40;;;23.90;56.70;;;;;;5056160;28;20530;-39
2022/11/08 19:46:02;;;;;;;7.73;5.57;;;23.90;56.70;;;;;;5068427;28;20200;-40
2022/11/08 19:48:32;;;;;;;6.97;5.07;;;23.90;56.70;;;;;;5064879;28;20298;-40
2022/11/08 19:51:01;;;;;;;7.83;5.23;;;23.80;56.60;;;;;;5057927;28;20572;-40
2022/11/08 19:53:30;;;;;;;8.77;5.37;;;23.90;56.60;;;;;;5066915;28;20199;-39
2022/11/08 19:56:00;;;;;;;8.07;4.90;;;23.90;56.60;;;;;;5071853;28;20201;-41
2022/11/08 19:58:30;;;;;;;9.07;5.47;;;23.90;56.50;;;;;;5075153;28;20214;-40
2022/11/08 20:00:59;;;;;;;8.43;5.57;;;23.90;56.50;;;;;;5074947;28;20313;-41
2022/11/08 20:03:27;;;;;;;6.53;4.93;;;23.90;56.40;;;;;;5074807;28;20190;-38
2022/11/08 20:05:55;;;;;;;9.17;5.73;;;23.90;56.40;;;;;;5074998;28;20198;-42
2022/11/08 20:08:23;;;;;;;7.33;5.73;;;23.90;56.40;;;;;;5074697;28;20708;-39
2022/11/08 20:10:52;;;;;;;6.60;5.17;;;23.80;56.40;;;;;;5074661;28;20225;-40
2022/11/08 20:13:21;;;;;;;7.37;5.43;;;23.90;56.30;;;;;;5074927;28;20212;-43
2022/11/08 20:15:53;;;;;;;9.93;5.83;;;23.90;56.30;;;;;;5075009;28;20243;-39
2022/11/08 20:18:21;;;;;;;10.30;5.57;;;23.90;56.20;;;;;;5074637;28;20211;-42
2022/11/08 20:20:50;;;;;;;7.90;5.43;;;23.90;56.20;;;;;;5074283;28;20206;-38
2022/11/08 20:23:18;;;;;;;10.03;5.90;;;23.90;56.10;;;;;;5074763;28;20201;-42
2022/11/08 20:25:46;;;;;;;7.90;5.63;;;23.90;56.10;;;;;;5074407;28;20189;-39
2022/11/08 20:28:15;;;;;;;7.20;5.70;;;23.90;56.10;;;;;;5072868;28;20205;-40
2022/11/08 20:30:43;;;;;;;15.60;8.30;;;23.90;56.10;;;;;;5060317;28;20766;-62
2022/11/08 20:33:13;;;;;;;15.90;10.60;;;23.40;52.50;;;;;;5074432;28;20223;-62
2022/11/08 20:35:41;;;;;;;14.63;10.50;;;20.10;55.10;;;;;;5065370;28;20197;-65
2022/11/08 20:38:09;;;;;;;13.97;10.33;;;17.90;60.30;;;;;;5074282;28;20201;-63
2022/11/08 20:40:38;;;;;;;15.10;11.43;;;16.30;67.80;;;;;;5070171;28;20652;-62
2022/11/08 20:43:07;;;;;;;15.63;10.83;;;15.20;76.10;;;;;;5067144;28;20210;-63
2022/11/08 20:45:39;;;;;;;14.70;11.37;;;14.50;84.70;;;;;;5064192;28;20202;-65
2022/11/08 20:48:07;;;;;;;15.20;10.93;;;13.80;92.20;;;;;;5058390;28;20750;-66
2022/11/08 20:50:38;;;;;;;16.33;11.57;;;13.50;95.40;;;;;;5065945;28;20714;-64
2022/11/08 20:53:06;;;;;;;14.40;11.60;;;13.30;97.50;;;;;;5065247;28;20204;-64
2022/11/08 20:55:35;;;;;;;19.47;12.43;;;13.30;98.30;;;;;;5058601;28;20573;-67
2022/11/08 20:58:03;;;;;;;19.47;11.20;;;13.30;99.00;;;;;;5067504;28;20193;-63
2022/11/08 21:00:31;;;;;;;19.17;11.67;;;13.10;99.80;;;;;;5066703;28;20659;-65
2022/11/08 21:03:19;;;;;;;16.60;11.00;;;13.10;99.90;;;;;;5060866;28;20203;-66
2022/11/08 21:05:53;;;;;;;15.67;10.63;;;13.20;99.90;;;;;;5073197;28;20729;-65
2022/11/08 21:08:23;;;;;;;15.40;10.90;;;13.20;99.90;;;;;;5073619;28;20646;-63
2022/11/08 21:11:12;;;;;;;21.97;11.63;;;13.20;99.90;;;;;;5073565;28;20246;-68
2022/11/08 21:13:42;;;;;;;18.80;11.43;;;13.20;99.90;;;;;;5073692;28;20209;-68
2022/11/08 21:16:12;;;;;;;15.53;11.00;;;13.20;99.90;;;;;;5073731;28;20194;-61
2022/11/08 21:18:57;;;;;;;16.23;11.77;;;13.10;99.90;;;;;;5072714;28;20213;-62
2022/11/08 21:21:27;;;;;;;18.10;13.27;;;13.20;99.90;;;;;;5073536;28;20209;-62
2022/11/08 21:23:55;;;;;;;14.87;11.37;;;13.10;99.90;;;;;;5071683;28;20204;-63
2022/11/08 21:26:24;;;;;;;18.70;12.53;;;13.10;99.90;;;;;;5073536;28;20231;-67
2022/11/08 21:28:53;;;;;;;18.87;11.50;;;13.10;99.90;;;;;;5072858;28;20203;-66
2022/11/08 21:31:22;;;;;;;20.53;12.00;;;12.90;99.90;;;;;;5072954;28;20232;-65
2022/11/08 21:33:50;;;;;;;15.33;10.60;;;12.90;99.90;;;;;;5072559;28;20201;-64
2022/11/08 21:36:20;;;;;;;17.77;11.43;;;12.90;99.90;;;;;;5073127;28;20188;-62
2022/11/08 21:38:50;;;;;;;18.40;11.93;;;12.90;99.90;;;;;;5073267;28;20213;-67
2022/11/08 21:41:18;;;;;;;22.63;11.93;;;12.90;99.90;;;;;;5073006;28;20224;-66
2022/11/08 21:43:47;;;;;;;20.50;13.50;;;13.00;99.90;;;;;;5073185;28;20221;-67
2022/11/08 21:46:18;;;;;;;16.77;12.10;;;13.00;99.90;;;;;;5072975;28;20295;-69
2022/11/08 21:48:48;;;;;;;18.80;11.67;;;13.00;99.90;;;;;;5072470;28;20246;-70
2022/11/08 21:51:16;;;;;;;16.83;11.00;;;13.10;99.90;;;;;;5071477;28;20232;-69
2022/11/08 21:53:45;;;;;;;18.00;11.47;;;13.00;99.90;;;;;;5073168;28;20193;-69
2022/11/08 21:56:24;;;;;;;15.07;10.57;;;13.00;99.90;;;;;;5057079;28;20207;-67
2022/11/08 21:58:53;;;;;;;16.37;11.37;;;13.10;99.90;;;;;;5068235;28;20284;-68
2022/11/08 22:01:24;;;;;;;15.13;10.53;;;13.10;99.90;;;;;;5072611;28;20299;-67
2022/11/08 22:04:00;;;;;;;16.47;10.93;;;12.90;99.90;;;;;;5072282;28;20200;-65
2022/11/08 22:06:29;;;;;;;19.57;10.80;;;13.00;99.90;;;;;;5072319;28;20209;-65
2022/11/08 22:08:58;;;;;;;14.63;10.27;;;12.90;99.90;;;;;;5072787;28;20199;-69
2022/11/08 22:11:28;;;;;;;17.70;10.40;;;12.90;99.90;;;;;;5072383;28;20310;-68
2022/11/08 22:13:57;;;;;;;17.47;9.90;;;12.80;99.90;;;;;;5072618;28;20926;-63
2022/11/08 22:16:25;;;;;;;11.77;9.63;;;12.80;99.90;;;;;;5072106;28;20291;-65
2022/11/08 22:18:55;;;;;;;12.40;10.33;;;12.60;99.90;;;;;;5060022;28;20288;-68
2022/11/08 22:21:41;;;;;;;13.23;9.37;;;12.80;99.90;;;;;;5052315;28;20571;-63
2022/11/08 22:24:12;;;;;;;12.63;9.20;;;12.80;99.90;;;;;;5066792;28;20685;-65
2022/11/08 22:26:42;;;;;;;17.37;10.63;;;12.80;99.90;;;;;;5072574;28;20205;-69
2022/11/08 22:29:11;;;;;;;17.00;10.20;;;12.80;99.90;;;;;;5072313;28;20193;-68
2022/11/08 22:31:40;;;;;;;14.57;10.03;;;12.90;99.90;;;;;;5070070;28;20243;-67
2022/11/08 22:34:10;;;;;;;13.13;9.40;;;13.00;99.80;;;;;;5072311;28;20249;-67
2022/11/08 22:36:40;;;;;;;15.80;9.67;;;12.90;99.80;;;;;;5072106;28;20283;-65
2022/11/08 22:39:13;;;;;;;12.27;8.37;;;13.00;99.70;;;;;;5072179;28;20207;-67
2022/11/08 22:41:44;;;;;;;12.87;8.27;;;13.00;99.60;;;;;;5071947;28;20225;-66
2022/11/08 22:44:14;;;;;;;16.40;10.93;;;12.90;99.90;;;;;;5070074;28;20228;-65
2022/11/08 22:46:43;;;;;;;10.90;8.90;;;12.90;99.70;;;;;;5071668;28;20193;-67
2022/11/08 22:49:13;;;;;;;11.07;8.87;;;13.10;99.30;;;;;;5070938;28;20200;-69
2022/11/08 22:51:43;;;;;;;14.90;8.83;;;13.10;99.30;;;;;;5071821;28;20259;-67
2022/11/08 22:54:11;;;;;;;15.50;8.57;;;13.00;99.40;;;;;;5071849;28;20270;-67
2022/11/08 22:56:40;;;;;;;13.30;8.20;;;13.10;99.20;;;;;;5072160;28;20674;-68
2022/11/08 22:59:11;;;;;;;12.70;8.57;;;13.20;98.80;;;;;;5072135;28;20295;-63
2022/11/08 23:01:40;;;;;;;10.07;7.87;;;13.20;98.40;;;;;;5061753;28;20343;-68
2022/11/08 23:04:10;;;;;;;9.90;7.27;;;13.10;98.60;;;;;;5055951;28;20292;-70
2022/11/08 23:06:39;;;;;;;11.43;8.17;;;13.20;98.40;;;;;;5053738;28;20308;-69
2022/11/08 23:09:08;;;;;;;10.87;7.53;;;13.20;98.20;;;;;;5051816;28;20205;-66
2022/11/08 23:17:10;;;;;;;11.90;7.83;;;13.40;97.60;;;;;;5051785;28;20209;-69
2022/11/08 23:25:11;;;;;;;12.60;8.43;;;13.30;97.30;;;;;;5068168;28;20224;-68
2022/11/08 23:33:13;;;;;;;12.13;8.00;;;13.20;97.90;;;;;;5075467;28;20572;-65
2022/11/08 23:36:09;;;;;;;14.33;8.03;;;13.20;97.80;;;;;;5075409;28;20249;-69
2022/11/08 23:38:30;;;;;;;12.30;8.53;;;13.20;98.00;;;;;;5075333;28;20201;-65
2022/11/08 23:46:33;;;;;;;12.50;9.13;;;13.20;98.00;;;;;;5075395;28;20225;-68
2022/11/08 23:49:02;;;;;;;14.17;10.10;;;13.10;98.50;;;;;;5075400;28;20571;-69
2022/11/08 23:51:30;;;;;;;14.47;9.47;;;13.10;98.50;;;;;;5075215;28;20322;-69
2022/11/08 23:53:59;;;;;;;15.03;9.67;;;13.20;98.40;;;;;;5074752;28;20237;-68
2022/11/08 23:56:28;;;;;;;11.90;9.00;;;13.10;98.30;;;;;;5075321;28;20242;-65
2022/11/08 23:58:59;;;;;;;13.60;9.60;;;13.20;98.30;;;;;;5074630;28;20190;-68
